Time;durP1;ratioP1;P1;durP2;ratioP2;P2;SDS_P1;SDS_P2;PMS_P1;PMS_P2;Temp;Humidity;BMP_temperature;BMP_pressure;BME280_temperature;BME280_humidity;BME280_pressure;Samples;Min_cycle;Max_cycle;Signal;HPM_P1;HPM_P2
2022/12/26 00:01:22;;;;;;;;;;;;;;;8.94;100.00;100845.91;5043268;28;19913;-69
2022/12/26 00:03:47;;;;;;;;;;;;;;;8.94;100.00;100848.59;5047776;28;19917;-69
2022/12/26 00:06:17;;;;;;;;;;;;;;;8.95;100.00;100858.38;5056210;28;19928;-69
2022/12/26 00:08:43;;;;;;;;;;;;;;;8.96;100.00;100843.97;5049525;28;19924;-69
2022/12/26 00:11:08;;;;;;;;;;;;;;;8.97;100.00;100851.91;5044236;28;19920;-70
2022/12/26 00:13:33;;;;;;;;;;;;;;;8.98;100.00;100852.78;5045967;28;19913;-69
2022/12/26 00:15:58;;;;;;;;;;;;;;;8.98;100.00;100850.09;5054684;28;20003;-69
2022/12/26 00:18:23;;;;;;;;;;;;;;;8.99;100.00;100860.72;5052215;28;19924;-69
2022/12/26 00:20:49;;;;;;;;;;;;;;;8.99;100.00;100858.03;5047928;28;20004;-69
2022/12/26 00:23:14;;;;;;;;;;;;;;;9.00;100.00;100870.47;5055114;28;19920;-69
2022/12/26 00:25:39;;;;;;;;;;;;;;;9.01;100.00;100882.06;5054984;28;19916;-69
2022/12/26 00:28:04;;;;;;;;;;;;;;;9.01;100.00;100866.84;5054610;28;19917;-69
2022/12/26 00:30:29;;;;;;;;;;;;;;;9.03;100.00;100866.72;5054005;28;19917;-70
2022/12/26 00:32:54;;;;;;;;;;;;;;;9.02;100.00;100884.66;5056508;28;20396;-69
2022/12/26 00:35:20;;;;;;;;;;;;;;;9.03;100.00;100886.34;5053507;28;19913;-69
2022/12/26 00:37:45;;;;;;;;;;;;;;;9.03;100.00;100886.34;5052588;28;19913;-69
2022/12/26 00:40:10;;;;;;;;;;;;;;;9.02;100.00;100892.69;5053708;28;19912;-69
2022/12/26 00:42:36;;;;;;;;;;;;;;;9.02;100.00;100876.59;5054822;28;19924;-69
2022/12/26 00:45:01;;;;;;;;;;;;;;;9.01;100.00;100877.56;5054537;28;19920;-69
2022/12/26 00:47:26;;;;;;;;;;;;;;;9.01;100.00;100880.25;5057745;28;20004;-69
2022/12/26 00:49:51;;;;;;;;;;;;;;;9.02;100.00;100883.78;5057107;28;20422;-69
2022/12/26 00:52:16;;;;;;;;;;;;;;;9.02;100.00;100890.00;5040508;28;19913;-69
2022/12/26 00:54:42;;;;;;;;;;;;;;;9.01;100.00;100899.00;5053325;28;20411;-69
2022/12/26 00:57:07;;;;;;;;;;;;;;;9.01;100.00;100893.63;5040561;28;19916;-69
2022/12/26 00:59:32;;;;;;;;;;;;;;;9.01;100.00;100888.28;5048957;28;19916;-68
2022/12/26 01:01:57;;;;;;;;;;;;;;;9.01;100.00;100906.19;5052965;28;19920;-69
2022/12/26 01:04:22;;;;;;;;;;;;;;;9.00;100.00;100899.97;5052350;28;19912;-69
2022/12/26 01:06:47;;;;;;;;;;;;;;;9.02;100.00;100881.09;5054804;28;20352;-70
2022/12/26 01:09:14;;;;;;;;;;;;;;;9.00;100.00;100883.88;5042811;28;19917;-69
2022/12/26 01:11:39;;;;;;;;;;;;;;;8.99;100.00;100898.25;5042965;28;19926;-70
2022/12/26 01:14:05;;;;;;;;;;;;;;;8.98;100.00;100919.81;5050659;28;20346;-68
2022/12/26 01:16:31;;;;;;;;;;;;;;;8.97;100.00;100904.69;5047285;28;19919;-69
2022/12/26 01:18:56;;;;;;;;;;;;;;;8.97;100.00;100920.75;5041387;28;20024;-71
2022/12/26 01:21:21;;;;;;;;;;;;;;;8.97;100.00;100918.94;5042255;28;19912;-69
2022/12/26 01:23:46;;;;;;;;;;;;;;;8.97;100.00;100905.53;5049878;28;20187;-69
2022/12/26 01:26:12;;;;;;;;;;;;;;;8.98;100.00;100893.00;5043987;28;20007;-70
2022/12/26 01:28:37;;;;;;;;;;;;;;;8.97;100.00;100894.81;5047130;28;19921;-69
2022/12/26 01:31:03;;;;;;;;;;;;;;;8.96;100.00;100894.91;5057573;28;19916;-69
2022/12/26 01:33:29;;;;;;;;;;;;;;;8.94;100.00;100903.03;5047318;28;19913;-69
2022/12/26 01:35:55;;;;;;;;;;;;;;;8.94;100.00;100911.09;5049720;28;20411;-70
2022/12/26 01:38:20;;;;;;;;;;;;;;;8.93;100.00;100901.31;5052781;28;20008;-69
2022/12/26 01:40:46;;;;;;;;;;;;;;;8.94;100.00;100899.53;5047684;28;19913;-69
2022/12/26 01:43:12;;;;;;;;;;;;;;;8.90;100.00;100896.16;5057919;28;19929;-69
2022/12/26 01:45:37;;;;;;;;;;;;;;;8.86;100.00;100908.06;5047770;28;19917;-70
2022/12/26 01:48:24;;;;;;;;;;;;;;;8.83;100.00;100905.56;5058929;28;19921;-69
2022/12/26 01:50:49;;;;;;;;;;;;;;;8.81;100.00;100902.13;5044609;28;20073;-69
2022/12/26 01:53:21;;;;;;;;;;;;;;;8.79;100.00;100906.75;5053679;28;19964;-69
2022/12/26 01:55:48;;;;;;;;;;;;;;;8.77;100.00;100905.97;5044346;28;19917;-69
2022/12/26 01:58:18;;;;;;;;;;;;;;;8.74;100.00;100907.03;5048710;28;19946;-69
2022/12/26 02:00:43;;;;;;;;;;;;;;;8.72;100.00;100908.94;5045074;28;19913;-74
2022/12/26 02:05:56;;;;;;;;;;;;;;;8.68;100.00;100902.94;5037347;28;19920;-74
2022/12/26 02:08:24;;;;;;;;;;;;;;;8.68;100.00;100905.63;5035928;28;19925;-74
2022/12/26 02:11:08;;;;;;;;;;;;;;;8.68;100.00;100910.97;5050935;28;19908;-74
2022/12/26 02:13:35;;;;;;;;;;;;;;;8.68;100.00;100919.03;5051998;28;19920;-74
2022/12/26 02:16:00;;;;;;;;;;;;;;;8.68;100.00;100916.34;5051369;28;20390;-74
2022/12/26 02:18:26;;;;;;;;;;;;;;;8.68;100.00;100910.97;5038256;28;19913;-74
2022/12/26 02:20:54;;;;;;;;;;;;;;;8.70;100.00;100925.13;5044245;28;19919;-74
2022/12/26 02:23:28;;;;;;;;;;;;;;;8.71;100.00;100913.47;5031444;28;19967;-74
2022/12/26 02:25:56;;;;;;;;;;;;;;;8.72;100.00;100911.63;5032243;28;20007;-74
2022/12/26 02:28:40;;;;;;;;;;;;;;;8.72;100.00;100908.94;5051801;28;19920;-74
2022/12/26 02:31:11;;;;;;;;;;;;;;;8.74;100.00;100915.06;5048675;28;20292;-74
2022/12/26 02:33:41;;;;;;;;;;;;;;;8.74;100.00;100905.22;5038227;28;19913;-74
2022/12/26 02:36:06;;;;;;;;;;;;;;;8.74;100.00;100910.56;5045768;28;20384;-74
2022/12/26 02:38:58;;;;;;;;;;;;;;;8.72;100.00;100912.47;5034805;28;19990;-74
2022/12/26 02:41:29;;;;;;;;;;;;;;;8.71;100.00;100909.91;5036833;28;19917;-74
2022/12/26 02:43:57;;;;;;;;;;;;;;;8.69;100.00;100915.34;5047579;28;19916;-74
2022/12/26 02:49:15;;;;;;;;;;;;;;;8.70;100.00;100927.81;5039335;28;19967;-74
2022/12/26 03:14:43;;;;;;;;;;;;;;;8.49;100.00;100923.81;5038228;28;20380;-74
2022/12/26 03:17:20;;;;;;;;;;;;;;;8.49;100.00;100931.84;5042359;28;19921;-74
2022/12/26 03:20:00;;;;;;;;;;;;;;;8.50;100.00;100936.25;5048416;28;19916;-74
2022/12/26 03:22:37;;;;;;;;;;;;;;;8.50;100.00;100923.72;5042559;28;20410;-74
2022/12/26 03:27:52;;;;;;;;;;;;;;;8.50;100.00;100907.63;5042504;28;21520;-74
2022/12/26 03:33:01;;;;;;;;;;;;;;;8.50;100.00;100906.78;5039813;28;20474;-74
2022/12/26 03:35:29;;;;;;;;;;;;;;;8.52;100.00;100907.53;5039265;28;20015;-73
2022/12/26 03:38:06;;;;;;;;;;;;;;;8.53;100.00;100904.75;5041597;28;19912;-74
2022/12/26 04:20:52;;;;;;;;;;;;;;;8.30;100.00;100962.44;4996799;28;20072;-74
2022/12/26 04:45:46;;;;;;;;;;;;;;;8.23;100.00;100926.28;5048758;28;20333;-74
2022/12/26 04:50:55;;;;;;;;;;;;;;;8.22;100.00;100927.25;5036795;28;19924;-74
2022/12/26 04:53:20;;;;;;;;;;;;;;;8.20;100.00;100926.50;5036842;28;19913;-74
2022/12/26 04:55:46;;;;;;;;;;;;;;;8.18;100.00;100912.31;5034378;28;20384;-74
2022/12/26 04:58:11;;;;;;;;;;;;;;;8.17;100.00;100915.94;5039189;28;20006;-74
2022/12/26 05:00:36;;;;;;;;;;;;;;;8.18;100.00;100936.41;5040029;28;19950;-74
2022/12/26 05:11:09;;;;;;;;;;;;;;;8.13;100.00;100942.06;5035581;28;20125;-74
2022/12/26 05:13:35;;;;;;;;;;;;;;;8.14;100.00;100940.22;5048686;28;19913;-74
2022/12/26 05:29:39;;;;;;;;;;;;;;;8.07;100.00;100954.94;5033535;28;20433;-73
2022/12/26 05:32:04;;;;;;;;;;;;;;;8.07;100.00;100946.91;5044754;28;19960;-74
2022/12/26 05:34:30;;;;;;;;;;;;;;;8.06;100.00;100932.69;5034567;28;19913;-74
2022/12/26 05:36:57;;;;;;;;;;;;;;;8.05;100.00;100933.63;5038013;28;20368;-74
2022/12/26 05:39:23;;;;;;;;;;;;;;;8.04;100.00;100934.59;5051613;28;20379;-74
2022/12/26 05:41:48;;;;;;;;;;;;;;;8.03;100.00;100928.38;5047126;28;19917;-74
2022/12/26 05:44:13;;;;;;;;;;;;;;;8.02;100.00;100925.78;5048901;28;19913;-74
2022/12/26 05:46:41;;;;;;;;;;;;;;;8.02;100.00;100913.28;5051619;28;20287;-74
2022/12/26 05:49:06;;;;;;;;;;;;;;;8.00;100.00;100917.00;5042828;28;19919;-74
2022/12/26 05:51:31;;;;;;;;;;;;;;;7.99;100.00;100913.44;5039335;28;19912;-74
2022/12/26 05:53:56;;;;;;;;;;;;;;;7.98;100.00;100903.72;5037472;28;20609;-74
2022/12/26 05:56:22;;;;;;;;;;;;;;;7.97;100.00;100911.84;5050612;28;19912;-74
2022/12/26 05:58:52;;;;;;;;;;;;;;;7.97;100.00;100920.72;5041525;28;19912;-74
2022/12/26 06:01:19;;;;;;;;;;;;;;;8.00;100.00;100911.66;5036317;28;19913;-74
2022/12/26 06:03:48;;;;;;;;;;;;;;;7.99;100.00;100923.31;5050733;28;19986;-74
2022/12/26 06:06:14;;;;;;;;;;;;;;;7.99;100.00;100932.19;5039514;28;19956;-74
2022/12/26 06:08:39;;;;;;;;;;;;;;;8.01;100.00;100935.66;5038455;28;19956;-74
2022/12/26 06:11:05;;;;;;;;;;;;;;;8.03;100.00;100941.75;5036353;28;19986;-74
2022/12/26 06:13:31;;;;;;;;;;;;;;;8.07;100.00;100946.91;5037029;28;20291;-74
2022/12/26 06:15:57;;;;;;;;;;;;;;;8.10;100.00;100947.59;5050919;28;19909;-74
2022/12/26 06:18:22;;;;;;;;;;;;;;;8.12;100.00;100945.69;5040755;28;19986;-74
2022/12/26 06:20:47;;;;;;;;;;;;;;;8.14;100.00;100950.94;5040404;28;20372;-74
2022/12/26 06:23:12;;;;;;;;;;;;;;;8.15;100.00;100950.84;5040779;28;19955;-74
2022/12/26 06:25:38;;;;;;;;;;;;;;;8.15;100.00;100955.34;5034852;28;20364;-74
2022/12/26 06:28:03;;;;;;;;;;;;;;;8.16;100.00;100949.03;5035174;28;19921;-74
2022/12/26 06:30:28;;;;;;;;;;;;;;;8.17;100.00;100964.13;5037768;28;19939;-74
2022/12/26 06:32:53;;;;;;;;;;;;;;;8.15;100.00;100968.72;5043649;28;19944;-73
2022/12/26 06:35:18;;;;;;;;;;;;;;;8.14;100.00;100973.25;5032771;28;19917;-74
2022/12/26 06:37:43;;;;;;;;;;;;;;;8.14;100.00;100973.25;5039500;28;19909;-74
2022/12/26 06:40:09;;;;;;;;;;;;;;;8.12;100.00;100975.13;5046556;28;19916;-74
2022/12/26 06:42:34;;;;;;;;;;;;;;;8.12;100.00;100974.28;5051103;28;20015;-72
2022/12/26 06:44:59;;;;;;;;;;;;;;;8.12;100.00;100971.59;5052034;28;20011;-74
2022/12/26 06:47:24;;;;;;;;;;;;;;;8.11;100.00;100977.91;5042952;28;19979;-74
2022/12/26 06:49:50;;;;;;;;;;;;;;;8.09;100.00;100971.78;5043482;28;19953;-74
2022/12/26 06:52:15;;;;;;;;;;;;;;;8.07;100.00;100976.34;5047730;28;19921;-74
2022/12/26 06:54:40;;;;;;;;;;;;;;;8.07;100.00;100971.00;5033226;28;20288;-73
2022/12/26 06:57:05;;;;;;;;;;;;;;;8.02;100.00;100966.81;5033418;28;19917;-74
2022/12/26 06:59:30;;;;;;;;;;;;;;;8.01;100.00;100959.72;5040631;28;19950;-74
2022/12/26 07:01:56;;;;;;;;;;;;;;;8.02;100.00;100969.50;5046156;28;19974;-74
2022/12/26 07:04:21;;;;;;;;;;;;;;;7.97;100.00;100976.94;5038724;28;20287;-74
2022/12/26 07:06:46;;;;;;;;;;;;;;;7.94;100.00;100963.72;5040776;28;20015;-74
2022/12/26 07:09:13;;;;;;;;;;;;;;;7.93;100.00;100970.03;5040359;28;19913;-74
2022/12/26 07:11:39;;;;;;;;;;;;;;;7.91;100.00;100966.59;5046069;28;19963;-74
2022/12/26 07:14:05;;;;;;;;;;;;;;;7.91;100.00;100969.28;5035683;28;19920;-74
2022/12/26 07:16:32;;;;;;;;;;;;;;;7.88;100.00;100970.31;5036122;28;20482;-74
2022/12/26 07:18:57;;;;;;;;;;;;;;;7.85;100.00;100969.66;5049622;28;19916;-74
2022/12/26 07:21:24;;;;;;;;;;;;;;;7.82;100.00;100978.72;5049031;28;19923;-74
2022/12/26 07:23:49;;;;;;;;;;;;;;;7.82;100.00;100977.88;5041229;28;19916;-74
2022/12/26 07:26:14;;;;;;;;;;;;;;;7.81;100.00;100974.31;5047532;28;20303;-74
2022/12/26 07:28:40;;;;;;;;;;;;;;;7.81;100.00;100984.16;5038733;28;19978;-74
2022/12/26 07:31:05;;;;;;;;;;;;;;;7.81;100.00;100976.13;5039687;28;20319;-74
2022/12/26 07:33:30;;;;;;;;;;;;;;;7.80;100.00;100980.59;5040899;28;20380;-74
2022/12/26 07:36:05;;;;;;;;;;;;;;;7.80;100.00;100974.41;5032931;28;19916;-74
2022/12/26 07:38:33;;;;;;;;;;;;;;;7.80;100.00;100977.94;5033291;28;19966;-74
2022/12/26 07:40:58;;;;;;;;;;;;;;;7.80;100.00;100988.63;5047109;28;19913;-74
2022/12/26 07:43:24;;;;;;;;;;;;;;;7.80;100.00;100995.81;5036048;28;19924;-74
2022/12/26 07:45:50;;;;;;;;;;;;;;;7.80;100.00;100995.81;5040289;28;20004;-74
2022/12/26 07:48:15;;;;;;;;;;;;;;;7.80;100.00;100993.13;5042856;28;19939;-74
2022/12/26 07:50:41;;;;;;;;;;;;;;;7.79;100.00;100984.25;5031982;28;20372;-74
2022/12/26 07:53:06;;;;;;;;;;;;;;;7.79;100.00;100984.25;5048358;28;20372;-74
2022/12/26 07:55:31;;;;;;;;;;;;;;;7.81;100.00;100981.47;5032687;28;19979;-74
2022/12/26 07:57:56;;;;;;;;;;;;;;;7.80;100.00;100995.81;5044899;28;20383;-74
2022/12/26 08:00:21;;;;;;;;;;;;;;;7.79;100.00;100992.28;5036496;28;19959;-74
2022/12/26 08:02:48;;;;;;;;;;;;;;;7.79;100.00;100994.94;5035462;28;19912;-74
2022/12/26 08:05:13;;;;;;;;;;;;;;;7.79;100.00;100994.06;5034849;28;19966;-74
2022/12/26 08:07:38;;;;;;;;;;;;;;;7.78;100.00;100995.91;5046697;28;19921;-74
2022/12/26 08:10:04;;;;;;;;;;;;;;;7.81;100.00;100989.50;5037136;28;19912;-74
2022/12/26 08:12:31;;;;;;;;;;;;;;;7.81;100.00;101002.88;5053424;28;20015;-74
2022/12/26 08:14:56;;;;;;;;;;;;;;;7.82;100.00;100994.78;5050097;28;20281;-74
2022/12/26 08:17:21;;;;;;;;;;;;;;;7.86;100.00;100998.09;5040130;28;19916;-74
2022/12/26 08:19:46;;;;;;;;;;;;;;;7.90;100.00;101006.84;5050167;28;20003;-74
2022/12/26 08:22:11;;;;;;;;;;;;;;;7.93;100.00;101001.28;5053332;28;19916;-74
2022/12/26 08:24:37;;;;;;;;;;;;;;;7.96;100.00;100999.28;5036035;28;19924;-74
2022/12/26 08:27:02;;;;;;;;;;;;;;;7.99;100.00;100993.75;5037030;28;19917;-74
2022/12/26 08:29:27;;;;;;;;;;;;;;;8.03;100.00;100995.28;5037806;28;19916;-74
2022/12/26 08:31:53;;;;;;;;;;;;;;;8.09;100.00;101006.59;5036415;28;20003;-74
2022/12/26 08:34:18;;;;;;;;;;;;;;;8.13;100.00;101002.78;5035112;28;19921;-72
2022/12/26 08:36:43;;;;;;;;;;;;;;;8.15;100.00;101001.72;5045413;28;19924;-74
2022/12/26 08:39:08;;;;;;;;;;;;;;;8.21;100.00;101005.84;5045691;28;19915;-74
2022/12/26 08:41:33;;;;;;;;;;;;;;;8.25;100.00;101025.28;5047287;28;19916;-74
2022/12/26 08:43:59;;;;;;;;;;;;;;;8.27;100.00;101026.88;5052862;28;19916;-74
2022/12/26 08:46:24;;;;;;;;;;;;;;;8.31;100.00;101027.56;5051338;28;19912;-74
2022/12/26 08:48:49;;;;;;;;;;;;;;;8.34;100.00;101027.38;5035176;28;19927;-74
2022/12/26 08:51:16;;;;;;;;;;;;;;;8.38;100.00;101029.75;5036105;28;20368;-74
2022/12/26 08:53:42;;;;;;;;;;;;;;;8.43;100.00;101033.97;5038217;28;20349;-74
2022/12/26 08:56:09;;;;;;;;;;;;;;;8.47;100.00;101038.25;5034787;28;19952;-73
2022/12/26 08:58:34;;;;;;;;;;;;;;;8.50;100.00;101043.41;5048266;28;20472;-74
2022/12/26 09:01:10;;;;;;;;;;;;;;;8.52;100.00;101031.66;5044059;28;19920;-74
2022/12/26 09:03:35;;;;;;;;;;;;;;;8.59;100.00;101034.78;5034421;28;19913;-74
2022/12/26 09:06:00;;;;;;;;;;;;;;;8.65;100.00;101042.44;5036283;28;19971;-74
2022/12/26 09:08:27;;;;;;;;;;;;;;;8.69;100.00;101049.34;5045805;28;19970;-73
2022/12/26 09:10:52;;;;;;;;;;;;;;;8.74;100.00;101052.59;5040536;28;19917;-74
2022/12/26 09:13:19;;;;;;;;;;;;;;;8.78;100.00;101052.41;5053157;28;19957;-74
2022/12/26 09:15:44;;;;;;;;;;;;;;;8.81;100.00;101046.84;5044910;28;19921;-73
2022/12/26 09:18:09;;;;;;;;;;;;;;;8.89;100.00;101053.44;5041482;28;19985;-74
2022/12/26 09:20:34;;;;;;;;;;;;;;;8.93;100.00;101064.81;5040726;28;19920;-74
2022/12/26 09:23:00;;;;;;;;;;;;;;;8.96;100.00;101045.91;5037342;28;19917;-73
2022/12/26 09:25:25;;;;;;;;;;;;;;;9.02;100.00;101063.38;5044014;28;19935;-74
2022/12/26 09:27:52;;;;;;;;;;;;;;;9.05;100.00;101055.19;5053181;28;19924;-74
2022/12/26 09:30:18;;;;;;;;;;;;;;;9.07;100.00;101070.19;5050975;28;19913;-74
2022/12/26 09:32:43;;;;;;;;;;;;;;;9.10;100.00;101071.81;5042494;28;20018;-74
2022/12/26 09:35:08;;;;;;;;;;;;;;;9.12;100.00;101071.72;5045827;28;19923;-74
2022/12/26 09:37:33;;;;;;;;;;;;;;;9.14;100.00;101083.22;5043958;28;19948;-74
2022/12/26 09:39:59;;;;;;;;;;;;;;;9.17;100.00;101085.72;5048163;28;20355;-74
2022/12/26 09:42:33;;;;;;;;;;;;;;;9.18;100.00;101087.41;5046959;28;19920;-74
2022/12/26 09:45:03;;;;;;;;;;;;;;;9.17;100.00;101091.06;5053049;28;19914;-74
2022/12/26 09:47:30;;;;;;;;;;;;;;;9.17;100.00;101093.75;5056562;28;20356;-73
2022/12/26 09:50:08;;;;;;;;;;;;;;;9.15;100.00;101098.34;5044784;28;19916;-74
2022/12/26 09:52:54;;;;;;;;;;;;;;;9.14;100.00;101102.84;5053174;28;19916;-74
2022/12/26 09:55:22;;;;;;;;;;;;;;;9.15;100.00;101109.94;5048907;28;19982;-74
2022/12/26 09:57:50;;;;;;;;;;;;;;;9.17;100.00;101109.84;5053073;28;19917;-74
2022/12/26 10:00:17;;;;;;;;;;;;;;;9.18;100.00;101108.84;5042428;28;19913;-74
2022/12/26 10:02:43;;;;;;;;;;;;;;;9.16;100.00;101124.19;5046093;28;19920;-74
2022/12/26 10:05:11;;;;;;;;;;;;;;;9.16;100.00;101121.50;5037380;28;19971;-74
2022/12/26 10:07:45;;;;;;;;;;;;;;;9.16;100.00;101116.16;5036752;28;19931;-74
2022/12/26 10:10:12;;;;;;;;;;;;;;;9.16;100.00;101118.84;5035874;28;20007;-76
2022/12/26 10:12:43;;;;;;;;;;;;;;;9.17;100.00;101117.88;5039445;28;20011;-74
2022/12/26 10:15:27;;;;;;;;;;;;;;;9.22;100.00;101118.44;5039073;28;19921;-74
2022/12/26 10:17:52;;;;;;;;;;;;;;;9.23;100.00;101128.22;5038196;28;20375;-73
2022/12/26 10:20:26;;;;;;;;;;;;;;;9.24;100.00;101136.16;5038866;28;19919;-74
2022/12/26 10:23:09;;;;;;;;;;;;;;;9.25;100.00;101137.91;5038871;28;19921;-74
2022/12/26 10:25:56;;;;;;;;;;;;;;;9.26;100.00;101136.06;5038539;28;19999;-74
2022/12/26 10:28:27;;;;;;;;;;;;;;;9.27;100.00;101124.38;5038688;28;19924;-74
2022/12/26 10:30:55;;;;;;;;;;;;;;;9.29;100.00;101135.88;5039640;28;20387;-73
2022/12/26 10:33:27;;;;;;;;;;;;;;;9.30;100.00;101150.13;5038783;28;19917;-73
2022/12/26 10:35:53;;;;;;;;;;;;;;;9.42;100.00;101186.94;5037594;28;19920;-74
2022/12/26 10:38:21;;;;;;;;;;;;;;;9.29;100.00;101192.19;5038780;28;19913;-74
2022/12/26 10:40:49;;;;;;;;;;;;;;;9.24;100.00;101197.84;5039226;28;19913;-74
2022/12/26 10:43:19;;;;;;;;;;;;;;;8.96;100.00;101211.22;5039129;28;19921;-74
2022/12/26 10:45:54;;;;;;;;;;;;;;;8.84;100.00;101207.47;5037536;28;20288;-75
2022/12/26 10:48:19;;;;;;;;;;;;;;;8.62;100.00;101207.88;5039784;28;20293;-73
2022/12/26 10:50:46;;;;;;;;;;;;;;;8.47;100.00;101215.88;5038566;28;19916;-75
2022/12/26 10:53:13;;;;;;;;;;;;;;;8.46;100.00;101210.59;5039050;28;19978;-74
2022/12/26 10:55:38;;;;;;;;;;;;;;;8.52;100.00;101226.31;5032301;28;19916;-75
2022/12/26 10:58:23;;;;;;;;;;;;;;;8.34;100.00;101229.09;5035901;28;21329;-74
2022/12/26 11:00:49;;;;;;;;;;;;;;;8.26;100.00;101228.69;5033362;28;19913;-74
2022/12/26 11:03:15;;;;;;;;;;;;;;;8.23;100.00;101236.91;5039107;28;19916;-74
2022/12/26 11:05:45;;;;;;;;;;;;;;;8.32;100.00;101232.81;5039414;28;19999;-75
2022/12/26 11:08:17;;;;;;;;;;;;;;;8.28;100.00;101245.50;5037418;28;20482;-75
2022/12/26 11:10:46;;;;;;;;;;;;;;;8.16;100.00;101243.53;5033779;28;19948;-75
2022/12/26 11:13:19;;;;;;;;;;;;;;;8.18;100.00;101247.84;5044798;28;19916;-74
2022/12/26 11:15:48;;;;;;;;;;;;;;;8.23;100.00;101267.19;5038895;28;19921;-74
2022/12/26 11:18:14;;;;;;;;;;;;;;;8.14;100.00;101264.16;5039219;28;20296;-75
2022/12/26 11:20:40;;;;;;;;;;;;;;;8.15;100.00;101265.91;5037929;28;20421;-74
2022/12/26 11:23:12;;;;;;;;;;;;;;;8.07;100.00;101265.47;5038300;28;19948;-74
2022/12/26 11:25:46;;;;;;;;;;;;;;;8.09;100.00;101274.28;5038774;28;20431;-75
2022/12/26 11:28:18;;;;;;;;;;;;;;;8.05;100.00;101281.63;5037153;28;19925;-73
2022/12/26 11:30:46;;;;;;;;;;;;;;;8.02;100.00;101277.31;5035575;28;19921;-74
2022/12/26 11:33:16;;;;;;;;;;;;;;;7.98;100.00;101283.78;5036301;28;19921;-74
2022/12/26 11:35:49;;;;;;;;;;;;;;;8.07;100.00;101282.41;5038910;28;20010;-74
2022/12/26 11:38:33;;;;;;;;;;;;;;;7.94;100.00;101276.00;5038303;28;19928;-74
2022/12/26 11:43:42;;;;;;;;;;;;;;;7.90;100.00;101285.16;5038206;28;19928;-74
2022/12/26 11:46:07;;;;;;;;;;;;;;;7.89;100.00;101286.94;5041698;28;19912;-75
2022/12/26 11:48:34;;;;;;;;;;;;;;;7.95;100.00;101289.31;5039375;28;19925;-73
2022/12/26 11:50:59;;;;;;;;;;;;;;;7.80;100.00;101295.50;5041729;28;19923;-74
2022/12/26 11:53:24;;;;;;;;;;;;;;;7.80;100.00;101301.69;5040517;28;19971;-73
2022/12/26 11:56:00;;;;;;;;;;;;;;;7.80;100.00;101295.50;5040314;28;20398;-74
2022/12/26 11:58:28;;;;;;;;;;;;;;;7.84;100.00;101289.03;5041192;28;20031;-74
2022/12/26 12:00:59;;;;;;;;;;;;;;;7.91;100.00;101289.56;5038869;28;19913;-74
2022/12/26 12:03:32;;;;;;;;;;;;;;;7.84;100.00;101310.44;5067562;28;19912;-74
2022/12/26 12:05:57;;;;;;;;;;;;;;;7.90;100.00;101327.97;5065644;28;20061;-74
2022/12/26 12:08:42;;;;;;;;;;;;;;;7.85;100.00;101317.53;5042045;28;20033;-74
2022/12/26 12:11:19;;;;;;;;;;;;;;;7.84;100.00;101308.59;5033410;28;19934;-74
2022/12/26 12:13:57;;;;;;;;;;;;;;;7.87;100.00;101324.50;5035414;28;19909;-74
2022/12/26 12:16:32;;;;;;;;;;;;;;;7.83;100.00;101328.31;5038674;28;19913;-74
2022/12/26 12:19:15;;;;;;;;;;;;;;;7.81;100.00;101327.50;5042380;28;19913;-74
2022/12/26 12:21:44;;;;;;;;;;;;;;;7.75;100.00;101329.69;5045200;28;20011;-74
2022/12/26 12:24:09;;;;;;;;;;;;;;;7.77;100.00;101317.06;5047800;28;20379;-74
2022/12/26 12:26:38;;;;;;;;;;;;;;;7.77;100.00;101325.94;5042160;28;19912;-74
2022/12/26 12:29:16;;;;;;;;;;;;;;;8.06;100.00;101323.50;5039237;28;19920;-73
2022/12/26 12:32:01;;;;;;;;;;;;;;;7.78;100.00;101325.00;5042465;28;19919;-72
2022/12/26 12:34:45;;;;;;;;;;;;;;;7.65;100.00;101323.94;5050783;28;19913;-76
2022/12/26 12:37:19;;;;;;;;;;;;;;;7.68;100.00;101324.63;5039050;28;20358;-76
2022/12/26 12:39:51;;;;;;;;;;;;;;;7.64;100.00;101333.78;5047233;28;19909;-75
2022/12/26 12:42:31;;;;;;;;;;;;;;;7.63;100.00;101348.09;5033172;28;20368;-74
2022/12/26 12:45:00;;;;;;;;;;;;;;;7.51;100.00;101336.25;5036443;28;19913;-74
2022/12/26 12:47:38;;;;;;;;;;;;;;;7.48;100.00;101338.19;5034242;28;19921;-74
2022/12/26 12:50:11;;;;;;;;;;;;;;;7.59;100.00;101345.69;5039569;28;19909;-75
2022/12/26 12:52:42;;;;;;;;;;;;;;;7.50;100.00;101349.69;5040200;28;19921;-74
2022/12/26 12:55:16;;;;;;;;;;;;;;;7.43;100.00;101351.81;5034410;28;19909;-74
2022/12/26 12:57:48;;;;;;;;;;;;;;;7.37;100.00;101364.66;5038118;28;19920;-74
2022/12/26 13:00:17;;;;;;;;;;;;;;;7.37;100.00;101370.84;5041455;28;19981;-74
2022/12/26 13:03:04;;;;;;;;;;;;;;;7.30;98.90;101364.94;5044392;28;19962;-73
2022/12/26 13:05:29;;;;;;;;;;;;;;;7.31;100.00;101360.47;5047298;28;19909;-74
2022/12/26 13:08:00;;;;;;;;;;;;;;;7.32;99.20;101368.44;5040904;28;19916;-74
2022/12/26 13:10:32;;;;;;;;;;;;;;;7.44;95.70;101363.41;5038450;28;19971;-74
2022/12/26 13:12:58;;;;;;;;;;;;;;;7.34;99.32;101358.50;5039928;28;19917;-74
2022/12/26 13:15:28;;;;;;;;;;;;;;;7.35;99.59;101365.59;5032727;28;20012;-73
2022/12/26 13:17:53;;;;;;;;;;;;;;;7.24;100.00;101357.25;5039107;28;19951;-73
2022/12/26 13:20:27;;;;;;;;;;;;;;;7.18;97.21;101350.41;5033477;28;19994;-73
2022/12/26 13:25:41;;;;;;;;;;;;;;;7.17;98.88;101358.50;5039220;28;19975;-73
2022/12/26 13:28:11;;;;;;;;;;;;;;;7.17;97.08;101367.41;5040613;28;19920;-73
2022/12/26 13:30:37;;;;;;;;;;;;;;;7.15;95.23;101371.09;5040078;28;19920;-74
2022/12/26 13:33:03;;;;;;;;;;;;;;;7.14;95.88;101380.91;5046337;28;19913;-73
2022/12/26 13:35:47;;;;;;;;;;;;;;;7.19;97.23;101370.00;5042290;28;19917;-73
2022/12/26 13:38:12;;;;;;;;;;;;;;;7.16;98.88;101380.84;5033494;28;19928;-73
2022/12/26 13:40:43;;;;;;;;;;;;;;;7.10;99.08;101376.69;5044267;28;19912;-73
2022/12/26 13:46:00;;;;;;;;;;;;;;;7.12;98.99;101387.28;5040323;28;19920;-73
2022/12/26 13:48:26;;;;;;;;;;;;;;;7.13;99.23;101392.56;5037113;28;20008;-73
2022/12/26 13:51:01;;;;;;;;;;;;;;;7.13;95.00;101389.88;5032920;28;20363;-73
2022/12/26 13:53:30;;;;;;;;;;;;;;;7.18;96.33;101389.66;5034128;28;19944;-72
2022/12/26 13:55:56;;;;;;;;;;;;;;;7.11;94.70;101398.91;5039661;28;19917;-72
2022/12/26 13:58:36;;;;;;;;;;;;;;;7.04;92.08;101416.19;5038214;28;19913;-73
2022/12/26 14:01:16;;;;;;;;;;;;;;;7.11;93.05;101404.25;5041303;28;19919;-74
2022/12/26 14:03:49;;;;;;;;;;;;;;;7.15;91.16;101411.19;5047436;28;20350;-73
2022/12/26 14:06:35;;;;;;;;;;;;;;;6.93;94.44;101414.91;5042998;28;19913;-73
2022/12/26 14:09:03;;;;;;;;;;;;;;;6.80;93.86;101409.28;5039313;28;19917;-73
2022/12/26 14:11:41;;;;;;;;;;;;;;;6.61;93.85;101419.16;5034484;28;20312;-74
2022/12/26 14:14:16;;;;;;;;;;;;;;;6.58;95.13;101420.16;5039892;28;19908;-74
2022/12/26 14:16:46;;;;;;;;;;;;;;;6.43;95.02;101428.91;5051104;28;19931;-73
2022/12/26 14:19:30;;;;;;;;;;;;;;;6.38;93.00;101436.25;5038946;28;19921;-74
2022/12/26 14:22:10;;;;;;;;;;;;;;;6.32;93.96;101441.88;5043642;28;19913;-75
2022/12/26 14:24:54;;;;;;;;;;;;;;;6.29;92.69;101451.72;5031897;28;20003;-73
2022/12/26 14:27:38;;;;;;;;;;;;;;;6.31;91.22;101462.38;5033478;28;19927;-73
2022/12/26 14:30:26;;;;;;;;;;;;;;;6.24;93.41;101459.09;5032562;28;19919;-73
2022/12/26 14:32:51;;;;;;;;;;;;;;;6.17;94.61;101465.66;5009462;28;19913;-73
2022/12/26 14:35:23;;;;;;;;;;;;;;;6.13;93.04;101474.72;5010656;28;20377;-73
2022/12/26 14:38:10;;;;;;;;;;;;;;;6.12;94.29;101479.22;5009029;28;19917;-73
2022/12/26 14:40:37;;;;;;;;;;;;;;;6.00;94.48;101478.88;5010793;28;20373;-73
2022/12/26 14:43:22;;;;;;;;;;;;;;;6.00;93.48;101484.22;5010449;28;19917;-73
2022/12/26 14:45:49;;;;;;;;;;;;;;;5.88;91.51;101490.91;5010603;28;19914;-73
2022/12/26 14:48:14;;;;;;;;;;;;;;;5.84;92.43;101495.53;5010471;28;19925;-73
2022/12/26 14:50:42;;;;;;;;;;;;;;;5.86;91.41;101496.31;5010257;28;19916;-73
2022/12/26 14:53:23;;;;;;;;;;;;;;;5.79;94.10;101502.84;5009771;28;19959;-73
2022/12/26 14:55:52;;;;;;;;;;;;;;;5.83;93.65;101508.91;5010593;28;20300;-73